createdAt,value
2022-11-25T00:01:42.016Z,-0.80
2022-11-25T00:04:09.934Z,-0.79
2022-11-25T00:06:38.310Z,-0.79
2022-11-25T00:09:12.630Z,-0.79
2022-11-25T00:11:42.768Z,-0.79
2022-11-25T00:14:13.070Z,-0.77
2022-11-25T00:16:45.167Z,-0.76
2022-11-25T00:19:16.583Z,-0.78
2022-11-25T00:21:44.991Z,-0.79
2022-11-25T00:24:15.391Z,-0.79
2022-11-25T00:26:43.763Z,-0.79
2022-11-25T00:29:13.127Z,-0.79
2022-11-25T00:31:41.842Z,-0.79
2022-11-25T00:34:13.608Z,-0.79
2022-11-25T00:36:41.680Z,-0.80
2022-11-25T00:39:17.645Z,-0.80
2022-11-25T00:42:05.775Z,-0.80
2022-11-25T00:44:36.931Z,-0.80
2022-11-25T00:47:11.645Z,-0.79
2022-11-25T00:49:41.862Z,-0.81
2022-11-25T00:52:13.260Z,-0.81
2022-11-25T00:54:41.282Z,-0.81
2022-11-25T00:57:09.145Z,-0.82
2022-11-25T00:59:37.021Z,-0.81
2022-11-25T01:02:04.879Z,-0.81
2022-11-25T01:04:33.114Z,-0.81
2022-11-25T01:07:02.457Z,-0.82
2022-11-25T01:09:31.072Z,-0.82
2022-11-25T01:11:59.308Z,-0.84
2022-11-25T01:14:27.174Z,-0.84
2022-11-25T01:16:55.389Z,-0.82
2022-11-25T01:19:23.430Z,-0.80
2022-11-25T01:21:51.292Z,-0.81
2022-11-25T01:24:19.249Z,-0.81
2022-11-25T01:26:47.120Z,-0.81
2022-11-25T01:29:19.135Z,-0.80
2022-11-25T01:31:48.677Z,-0.79
2022-11-25T01:34:20.443Z,-0.78
2022-11-25T01:36:48.304Z,-0.76
2022-11-25T01:39:26.847Z,-0.79
2022-11-25T01:41:58.380Z,-0.78
2022-11-25T01:44:31.974Z,-0.76
2022-11-25T01:47:26.256Z,-0.74
2022-11-25T01:50:02.723Z,-0.76
2022-11-25T01:52:39.394Z,-0.77
2022-11-25T01:55:14.610Z,-0.74
2022-11-25T01:57:45.470Z,-0.72
2022-11-25T02:00:15.049Z,-0.73
2022-11-25T02:02:43.754Z,-0.72
2022-11-25T02:05:16.439Z,-0.71
2022-11-25T02:07:47.599Z,-0.70
2022-11-25T02:10:22.570Z,-0.71
2022-11-25T02:12:52.014Z,-0.72
2022-11-25T02:15:20.789Z,-0.71
2022-11-25T02:17:49.593Z,-0.73
2022-11-25T02:20:20.482Z,-0.73
2022-11-25T02:22:58.017Z,-0.74
2022-11-25T02:25:29.262Z,-0.74
2022-11-25T02:28:16.079Z,-0.73
2022-11-25T02:30:45.513Z,-0.74
2022-11-25T02:33:14.945Z,-0.73
2022-11-25T02:35:48.374Z,-0.73
2022-11-25T02:38:40.612Z,-0.74
2022-11-25T02:41:14.574Z,-0.74
2022-11-25T02:43:42.893Z,-0.73
2022-11-25T02:46:18.862Z,-0.73
2022-11-25T02:51:40.747Z,-0.73
2022-11-25T02:54:08.660Z,-0.75
2022-11-25T02:56:36.630Z,-0.76
2022-11-25T02:59:04.803Z,-0.74
2022-11-25T03:01:35.195Z,-0.74
2022-11-25T03:04:04.117Z,-0.75
2022-11-25T03:06:32.194Z,-0.74
2022-11-25T03:09:00.465Z,-0.74
2022-11-25T03:11:47.169Z,-0.75
2022-11-25T03:14:15.036Z,-0.76
2022-11-25T03:16:43.232Z,-0.75
2022-11-25T03:19:11.177Z,-0.74
2022-11-25T03:21:39.049Z,-0.74
2022-11-25T03:24:07.346Z,-0.74
2022-11-25T03:26:35.202Z,-0.74
2022-11-25T03:29:03.051Z,-0.76
2022-11-25T03:31:31.086Z,-0.77
2022-11-25T03:33:58.984Z,-0.76
2022-11-25T03:36:26.848Z,-0.76
2022-11-25T03:38:54.716Z,-0.75
2022-11-25T03:41:22.579Z,-0.73
2022-11-25T03:43:50.448Z,-0.74
2022-11-25T03:46:18.784Z,-0.74
2022-11-25T03:48:46.894Z,-0.75
2022-11-25T03:51:14.863Z,-0.76
2022-11-25T03:53:42.728Z,-0.77
2022-11-25T03:56:10.595Z,-0.76
2022-11-25T03:58:38.461Z,-0.75
2022-11-25T04:01:06.381Z,-0.75
2022-11-25T04:03:34.499Z,-0.73
2022-11-25T04:06:02.361Z,-0.73
2022-11-25T04:08:30.230Z,-0.73
2022-11-25T04:10:58.115Z,-0.74
2022-11-25T04:13:25.960Z,-0.75
2022-11-25T04:15:53.829Z,-0.76
2022-11-25T04:18:21.794Z,-0.78
2022-11-25T04:20:49.664Z,-0.78
2022-11-25T04:23:17.729Z,-0.78
2022-11-25T04:25:45.603Z,-0.81
2022-11-25T04:28:13.458Z,-0.81
2022-11-25T04:30:41.569Z,-0.81
2022-11-25T04:33:09.399Z,-0.80
2022-11-25T04:35:37.259Z,-0.81
2022-11-25T04:38:05.124Z,-0.83
2022-11-25T04:40:32.991Z,-0.81
2022-11-25T04:43:04.867Z,-0.80
2022-11-25T04:45:59.035Z,-0.80
2022-11-25T04:48:25.581Z,-0.79
2022-11-25T04:50:53.431Z,-0.80
2022-11-25T04:53:21.302Z,-0.80
2022-11-25T04:55:49.370Z,-0.79
2022-11-25T04:58:37.406Z,-0.79
2022-11-25T05:01:05.336Z,-0.78
2022-11-25T05:03:33.343Z,-0.76
2022-11-25T05:06:06.330Z,-0.73
2022-11-25T05:08:34.194Z,-0.71
2022-11-25T05:11:02.466Z,-0.70
2022-11-25T05:13:30.333Z,-0.68
2022-11-25T05:16:00.968Z,-0.69
2022-11-25T05:18:28.829Z,-0.69
2022-11-25T05:21:02.332Z,-0.69
2022-11-25T05:23:30.500Z,-0.70
2022-11-25T05:26:03.197Z,-0.69
2022-11-25T05:28:31.662Z,-0.69
2022-11-25T05:30:59.800Z,-0.69
2022-11-25T05:33:27.801Z,-0.68
2022-11-25T05:35:57.617Z,-0.67
2022-11-25T05:38:26.464Z,-0.66
2022-11-25T05:41:00.464Z,-0.65
2022-11-25T05:43:28.376Z,-0.66
2022-11-25T05:45:56.574Z,-0.65
2022-11-25T05:48:24.971Z,-0.66
2022-11-25T05:50:53.039Z,-0.66
2022-11-25T05:53:20.964Z,-0.65
2022-11-25T05:56:04.495Z,-0.65
2022-11-25T05:58:33.081Z,-0.65
2022-11-25T06:01:00.989Z,-0.64
2022-11-25T06:03:30.268Z,-0.65
2022-11-25T06:05:59.853Z,-0.62
2022-11-25T06:08:28.432Z,-0.63
2022-11-25T06:10:56.301Z,-0.64
2022-11-25T06:13:24.984Z,-0.64
2022-11-25T06:15:52.983Z,-0.63
2022-11-25T06:18:20.918Z,-0.63
2022-11-25T06:20:59.333Z,-0.61
2022-11-25T06:23:27.200Z,-0.60
2022-11-25T06:25:55.164Z,-0.58
2022-11-25T06:28:32.890Z,-0.55
2022-11-25T06:31:09.619Z,-0.53
2022-11-25T06:33:38.263Z,-0.50
2022-11-25T06:36:07.856Z,-0.47
2022-11-25T06:38:35.856Z,-0.43
2022-11-25T06:41:05.055Z,-0.40
2022-11-25T06:43:33.432Z,-0.36
2022-11-25T06:46:09.200Z,-0.34
2022-11-25T06:48:37.664Z,-0.32
2022-11-25T06:51:08.755Z,-0.29
2022-11-25T06:53:36.775Z,-0.27
2022-11-25T06:56:19.487Z,-0.25
2022-11-25T06:58:48.888Z,-0.23
2022-11-25T07:01:20.531Z,-0.20
2022-11-25T07:03:53.032Z,-0.17
2022-11-25T07:06:21.605Z,-0.13
2022-11-25T07:08:50.042Z,-0.10
2022-11-25T07:11:27.467Z,-0.09
2022-11-25T07:13:58.924Z,-0.07
2022-11-25T07:16:28.209Z,-0.07
2022-11-25T07:18:56.448Z,-0.03
2022-11-25T07:21:25.613Z,-0.00
2022-11-25T07:23:53.655Z,0.05
2022-11-25T07:26:24.491Z,0.10
2022-11-25T07:28:53.902Z,0.13
2022-11-25T07:31:31.473Z,0.16
2022-11-25T07:34:23.292Z,0.19
2022-11-25T07:36:51.501Z,0.20
2022-11-25T07:39:22.530Z,0.23
2022-11-25T07:41:54.491Z,0.26
2022-11-25T07:44:22.456Z,0.30
2022-11-25T07:46:51.117Z,0.32
2022-11-25T07:49:21.784Z,0.33
2022-11-25T07:51:53.782Z,0.32
2022-11-25T07:54:23.044Z,0.33
2022-11-25T07:56:51.860Z,0.33
2022-11-25T07:59:22.551Z,0.33
2022-11-25T08:01:53.155Z,0.33
2022-11-25T08:04:21.560Z,0.34
2022-11-25T08:06:52.604Z,0.34
2022-11-25T08:09:24.009Z,0.35
2022-11-25T08:11:52.826Z,0.34
2022-11-25T08:14:21.459Z,0.36
2022-11-25T08:16:49.291Z,0.38
2022-11-25T08:19:17.979Z,0.42
2022-11-25T08:21:48.166Z,0.46
2022-11-25T08:24:19.024Z,0.46
2022-11-25T08:26:48.076Z,0.47
2022-11-25T08:29:18.139Z,0.51
2022-11-25T08:31:46.311Z,0.56
2022-11-25T08:34:23.608Z,0.61
2022-11-25T08:36:52.300Z,0.61
2022-11-25T08:39:51.307Z,0.62
2022-11-25T08:42:10.405Z,0.62
2022-11-25T08:44:38.301Z,0.66
2022-11-25T08:47:06.373Z,0.71
2022-11-25T08:49:40.420Z,0.76
2022-11-25T08:52:10.594Z,0.79
2022-11-25T08:54:38.674Z,0.80
2022-11-25T08:57:06.757Z,0.84
2022-11-25T08:59:35.557Z,0.86
2022-11-25T09:02:04.705Z,0.90
2022-11-25T09:04:32.910Z,0.91
2022-11-25T09:07:01.998Z,0.92
2022-11-25T09:09:29.979Z,0.91
2022-11-25T09:11:57.830Z,0.93
2022-11-25T09:14:26.014Z,0.96
2022-11-25T09:16:58.177Z,0.99
2022-11-25T09:19:28.322Z,1.00
2022-11-25T09:22:04.970Z,1.00
2022-11-25T09:24:37.507Z,1.01
2022-11-25T09:27:08.394Z,0.99
2022-11-25T09:29:40.162Z,0.99
2022-11-25T09:32:09.531Z,0.99
2022-11-25T09:34:38.775Z,0.97
2022-11-25T09:37:07.982Z,0.98
2022-11-25T09:39:36.907Z,1.02
2022-11-25T09:42:54.585Z,1.05
2022-11-25T09:45:54.205Z,1.06
2022-11-25T09:48:31.291Z,1.02
2022-11-25T09:51:32.536Z,1.03
2022-11-25T09:54:27.743Z,0.97
2022-11-25T09:57:03.744Z,0.98
2022-11-25T09:59:49.294Z,1.04
2022-11-25T10:02:27.971Z,1.09
2022-11-25T10:05:07.132Z,1.08
2022-11-25T10:07:42.878Z,1.09
2022-11-25T10:10:22.521Z,1.07
2022-11-25T10:12:53.498Z,1.08
2022-11-25T10:15:34.840Z,1.07
2022-11-25T10:18:39.880Z,1.09
2022-11-25T10:21:11.741Z,1.12
2022-11-25T10:23:40.116Z,1.14
2022-11-25T10:26:16.584Z,1.11
2022-11-25T10:28:56.123Z,1.09
2022-11-25T10:31:32.972Z,1.10
2022-11-25T10:34:10.958Z,1.12
2022-11-25T10:36:41.168Z,1.14
2022-11-25T10:39:27.212Z,1.10
2022-11-25T10:42:03.708Z,1.13
2022-11-25T10:44:35.061Z,1.15
2022-11-25T10:47:24.699Z,1.18
2022-11-25T10:50:11.717Z,1.18
2022-11-25T10:52:50.916Z,1.19
2022-11-25T10:55:30.446Z,1.16
2022-11-25T10:57:58.864Z,1.14
2022-11-25T11:00:37.072Z,1.11
2022-11-25T11:03:20.875Z,1.08
2022-11-25T11:05:52.572Z,1.06
2022-11-25T11:08:22.460Z,1.05
2022-11-25T11:11:11.365Z,1.04
2022-11-25T11:13:39.618Z,1.05
2022-11-25T11:16:56.940Z,1.08
2022-11-25T11:19:27.571Z,1.12
2022-11-25T11:21:57.072Z,1.14
2022-11-25T11:24:36.001Z,1.12
2022-11-25T11:27:20.756Z,1.16
2022-11-25T11:29:49.214Z,1.20
2022-11-25T11:32:28.498Z,1.23
2022-11-25T11:35:12.513Z,1.29
2022-11-25T11:37:53.387Z,1.34
2022-11-25T11:40:25.666Z,1.43
2022-11-25T11:42:56.295Z,1.53
2022-11-25T11:45:24.097Z,1.62
2022-11-25T11:48:23.560Z,1.65
2022-11-25T11:50:57.670Z,1.61
2022-11-25T11:53:37.106Z,1.62
2022-11-25T11:59:27.414Z,1.63
2022-11-25T12:02:07.283Z,1.62
2022-11-25T12:04:57.243Z,1.56
2022-11-25T12:07:38.244Z,1.58
2022-11-25T12:10:13.798Z,1.63
2022-11-25T12:12:50.571Z,1.69
2022-11-25T12:15:33.145Z,1.71
2022-11-25T12:18:09.822Z,1.64
2022-11-25T12:21:02.471Z,1.58
2022-11-25T12:23:45.241Z,1.55
2022-11-25T12:26:23.490Z,1.57
2022-11-25T12:29:05.488Z,1.56
2022-11-25T12:31:42.110Z,1.53
2022-11-25T12:34:17.258Z,1.51
2022-11-25T12:36:47.315Z,1.51
2022-11-25T12:39:46.216Z,1.51
2022-11-25T12:42:20.726Z,1.46
2022-11-25T12:45:07.335Z,1.43
2022-11-25T12:47:35.195Z,1.42
2022-11-25T12:50:03.471Z,1.40
2022-11-25T12:53:03.696Z,1.37
2022-11-25T12:55:32.416Z,1.34
2022-11-25T12:58:21.576Z,1.33
2022-11-25T13:01:07.293Z,1.32
2022-11-25T13:04:02.644Z,1.30
2022-11-25T13:07:04.299Z,1.28
2022-11-25T13:09:47.010Z,1.28
2022-11-25T13:12:17.844Z,1.27
2022-11-25T13:15:14.312Z,1.27
2022-11-25T13:17:46.291Z,1.26
2022-11-25T13:20:29.980Z,1.26
2022-11-25T13:23:25.906Z,1.26
2022-11-25T13:26:29.026Z,1.26
2022-11-25T13:28:57.422Z,1.24
2022-11-25T13:31:59.012Z,1.23
2022-11-25T13:34:31.809Z,1.23
2022-11-25T13:37:02.180Z,1.22
2022-11-25T13:39:35.678Z,1.19
2022-11-25T13:42:13.325Z,1.19
2022-11-25T13:44:57.881Z,1.17
2022-11-25T13:47:28.896Z,1.16
2022-11-25T13:50:07.377Z,1.15
2022-11-25T13:52:49.330Z,1.14
2022-11-25T13:55:17.095Z,1.14
2022-11-25T13:58:02.570Z,1.11
2022-11-25T14:00:33.609Z,1.10
2022-11-25T14:03:20.004Z,1.09
2022-11-25T14:06:06.720Z,1.07
2022-11-25T14:08:43.401Z,1.05
2022-11-25T14:11:11.265Z,1.04
2022-11-25T14:13:48.035Z,1.02
2022-11-25T14:16:50.475Z,1.01
2022-11-25T14:19:55.139Z,0.97
2022-11-25T14:23:01.124Z,0.96
2022-11-25T14:25:52.204Z,0.94
2022-11-25T14:28:26.625Z,0.92
2022-11-25T14:31:01.042Z,0.92
2022-11-25T14:33:35.261Z,0.90
2022-11-25T14:36:17.972Z,0.88
2022-11-25T14:39:09.237Z,0.86
2022-11-25T14:42:07.464Z,0.85
2022-11-25T14:44:48.715Z,0.84
2022-11-25T14:47:23.000Z,0.84
2022-11-25T14:50:26.706Z,0.83
2022-11-25T14:52:48.796Z,0.81
2022-11-25T14:55:31.980Z,0.80
2022-11-25T14:58:00.157Z,0.80
2022-11-25T15:00:28.061Z,0.80
2022-11-25T15:02:59.502Z,0.81
2022-11-25T15:05:36.597Z,0.81
2022-11-25T15:08:13.543Z,0.80
2022-11-25T15:11:12.773Z,0.80
2022-11-25T15:13:55.580Z,0.80
2022-11-25T15:16:30.787Z,0.80
2022-11-25T15:19:01.501Z,0.81
2022-11-25T15:21:34.231Z,0.82
2022-11-25T15:24:03.842Z,0.83
2022-11-25T15:26:34.878Z,0.83
2022-11-25T15:29:11.341Z,0.83
2022-11-25T15:31:42.149Z,0.83
2022-11-25T15:34:14.858Z,0.82
2022-11-25T15:36:43.033Z,0.80
2022-11-25T15:39:25.333Z,0.80
2022-11-25T15:42:19.617Z,0.81
2022-11-25T15:45:10.321Z,0.81
2022-11-25T15:47:38.285Z,0.82
2022-11-25T15:50:07.629Z,0.83
2022-11-25T15:52:40.161Z,0.83
2022-11-25T15:55:36.188Z,0.84
2022-11-25T15:58:07.024Z,0.85
2022-11-25T16:00:34.887Z,0.86
2022-11-25T16:03:04.495Z,0.85
2022-11-25T16:05:37.989Z,0.86
2022-11-25T16:08:30.750Z,0.86
2022-11-25T16:11:09.773Z,0.85
2022-11-25T16:13:39.935Z,0.84
2022-11-25T16:16:07.832Z,0.85
2022-11-25T16:19:10.233Z,0.85
2022-11-25T16:21:40.769Z,0.83
2022-11-25T16:24:36.313Z,0.83
2022-11-25T16:27:19.772Z,0.83
2022-11-25T16:29:49.305Z,0.82
2022-11-25T16:32:20.350Z,0.82
2022-11-25T16:34:49.029Z,0.82
2022-11-25T16:37:16.898Z,0.81
2022-11-25T16:39:44.765Z,0.81
2022-11-25T16:42:21.746Z,0.81
2022-11-25T16:44:51.877Z,0.80
2022-11-25T16:47:21.638Z,0.80
2022-11-25T16:49:50.435Z,0.80
2022-11-25T16:52:18.576Z,0.80
2022-11-25T16:54:47.572Z,0.80
2022-11-25T16:57:22.175Z,0.81
2022-11-25T16:59:55.938Z,0.82
2022-11-25T17:02:26.833Z,0.82
2022-11-25T17:04:56.127Z,0.82
2022-11-25T17:07:32.640Z,0.82
2022-11-25T17:10:04.777Z,0.83
2022-11-25T17:12:35.104Z,0.84
2022-11-25T17:15:08.075Z,0.84
2022-11-25T17:17:36.101Z,0.85
2022-11-25T17:20:04.682Z,0.86
2022-11-25T17:22:38.760Z,0.85
2022-11-25T17:25:09.565Z,0.84
2022-11-25T17:27:37.593Z,0.83
2022-11-25T17:30:07.693Z,0.83
2022-11-25T17:32:36.098Z,0.82
2022-11-25T17:35:15.832Z,0.83
2022-11-25T17:37:43.749Z,0.83
2022-11-25T17:40:13.204Z,0.85
2022-11-25T17:42:42.810Z,0.85
2022-11-25T17:45:16.361Z,0.85
2022-11-25T17:47:44.992Z,0.85
2022-11-25T17:50:17.513Z,0.86
2022-11-25T17:52:45.645Z,0.86
2022-11-25T17:55:17.295Z,0.86
2022-11-25T17:57:51.207Z,0.86
2022-11-25T18:00:21.525Z,0.82
2022-11-25T18:02:50.186Z,0.81
2022-11-25T18:05:26.797Z,0.81
2022-11-25T18:07:55.715Z,0.80
2022-11-25T18:10:27.528Z,0.79
2022-11-25T18:12:56.328Z,0.78
2022-11-25T18:15:27.669Z,0.76
2022-11-25T18:18:03.571Z,0.79
2022-11-25T18:20:33.271Z,0.81
2022-11-25T18:23:01.223Z,0.82
2022-11-25T18:25:34.205Z,0.83
2022-11-25T18:28:04.604Z,0.83
2022-11-25T18:30:35.858Z,0.82
2022-11-25T18:33:06.464Z,0.83
2022-11-25T18:35:36.882Z,0.83
2022-11-25T18:38:06.201Z,0.84
2022-11-25T18:40:36.363Z,0.85
2022-11-25T18:43:04.804Z,0.86
2022-11-25T18:45:39.117Z,0.87
2022-11-25T18:48:22.904Z,0.88
2022-11-25T18:50:53.328Z,0.89
2022-11-25T18:53:21.865Z,0.89
2022-11-25T18:55:50.103Z,0.90
2022-11-25T18:58:27.820Z,0.91
2022-11-25T19:01:03.360Z,0.91
2022-11-25T19:03:31.550Z,0.91
2022-11-25T19:06:01.262Z,0.91
2022-11-25T19:08:30.048Z,0.92
2022-11-25T19:10:58.219Z,0.91
2022-11-25T19:13:36.528Z,0.91
2022-11-25T19:16:13.199Z,0.92
2022-11-25T19:18:44.184Z,0.92
2022-11-25T19:21:17.129Z,0.93
2022-11-25T19:23:45.930Z,0.94
2022-11-25T19:26:17.873Z,0.94
2022-11-25T19:28:49.890Z,0.96
2022-11-25T19:31:20.090Z,0.97
2022-11-25T19:33:51.408Z,0.98
2022-11-25T19:36:25.312Z,0.98
2022-11-25T19:38:54.209Z,0.99
2022-11-25T19:41:22.170Z,0.98
2022-11-25T19:43:50.246Z,1.00
2022-11-25T19:46:46.293Z,1.00
2022-11-25T19:49:20.120Z,1.01
2022-11-25T19:51:49.156Z,1.01
2022-11-25T19:54:18.667Z,1.02
2022-11-25T19:56:46.738Z,1.02
2022-11-25T19:59:14.806Z,1.02
2022-11-25T20:01:49.577Z,1.03
2022-11-25T20:04:21.262Z,1.03
2022-11-25T20:06:49.798Z,1.02
2022-11-25T20:09:17.708Z,1.03
2022-11-25T20:11:45.677Z,1.04
2022-11-25T20:14:13.646Z,1.04
2022-11-25T20:16:42.314Z,1.04
2022-11-25T20:19:17.882Z,1.03
2022-11-25T20:21:46.782Z,1.03
2022-11-25T20:24:19.752Z,1.03
2022-11-25T20:26:49.068Z,1.01
2022-11-25T20:29:21.325Z,1.02
2022-11-25T20:31:50.681Z,1.02
2022-11-25T20:34:18.792Z,1.03
2022-11-25T20:36:46.625Z,1.04
2022-11-25T20:39:19.642Z,1.03
2022-11-25T20:41:50.440Z,1.03
2022-11-25T20:44:19.984Z,1.03
2022-11-25T20:46:48.315Z,1.04
2022-11-25T20:49:22.086Z,1.03
2022-11-25T20:51:50.229Z,1.03
2022-11-25T20:54:18.302Z,1.04
2022-11-25T20:56:46.141Z,1.05
2022-11-25T20:59:23.440Z,1.06
2022-11-25T21:01:52.932Z,1.07
2022-11-25T21:04:21.485Z,1.07
2022-11-25T21:06:49.417Z,1.08
2022-11-25T21:09:21.815Z,1.07
2022-11-25T21:11:49.949Z,1.07
2022-11-25T21:14:20.480Z,1.07
2022-11-25T21:16:48.661Z,1.07
2022-11-25T21:19:16.617Z,1.08
2022-11-25T21:21:46.943Z,1.07
2022-11-25T21:24:24.037Z,1.09
2022-11-25T21:26:52.457Z,1.08
2022-11-25T21:29:20.993Z,1.10
2022-11-25T21:31:49.357Z,1.11
2022-11-25T21:34:17.534Z,1.10
2022-11-25T21:36:48.061Z,1.10
2022-11-25T21:39:32.525Z,1.08
2022-11-25T21:42:05.588Z,1.07
2022-11-25T21:44:38.490Z,1.06
2022-11-25T21:47:20.689Z,1.06
2022-11-25T21:49:49.375Z,1.08
2022-11-25T21:52:18.367Z,1.08
2022-11-25T21:54:46.648Z,1.09
2022-11-25T21:57:27.509Z,1.09
2022-11-25T21:59:55.851Z,1.10
2022-11-25T22:02:25.121Z,1.10
2022-11-25T22:04:53.261Z,1.10
2022-11-25T22:07:22.470Z,1.10
2022-11-25T22:09:53.086Z,1.10
2022-11-25T22:12:29.654Z,1.11
2022-11-25T22:14:59.519Z,1.12
2022-11-25T22:17:29.377Z,1.11
2022-11-25T22:19:57.612Z,1.10
2022-11-25T22:22:25.543Z,1.10
2022-11-25T22:24:53.492Z,1.10
2022-11-25T22:27:24.938Z,1.09
2022-11-25T22:29:54.030Z,1.11
2022-11-25T22:32:22.512Z,1.11
2022-11-25T22:34:50.317Z,1.13
2022-11-25T22:37:21.115Z,1.13
2022-11-25T22:39:49.337Z,1.13
2022-11-25T22:42:28.524Z,1.14
2022-11-25T22:44:58.229Z,1.14
2022-11-25T22:47:33.259Z,1.16
2022-11-25T22:50:03.480Z,1.15
2022-11-25T22:52:36.317Z,1.16
2022-11-25T22:55:23.120Z,1.16
2022-11-25T22:57:53.339Z,1.16
2022-11-25T23:00:25.887Z,1.17
2022-11-25T23:02:59.875Z,1.16
2022-11-25T23:05:33.991Z,1.17
2022-11-25T23:08:10.355Z,1.18
2022-11-25T23:10:38.319Z,1.19
2022-11-25T23:13:06.288Z,1.21
2022-11-25T23:15:35.224Z,1.21
2022-11-25T23:18:05.400Z,1.21
2022-11-25T23:20:36.848Z,1.22
2022-11-25T23:23:19.987Z,1.24
2022-11-25T23:25:48.383Z,1.24
2022-11-25T23:28:16.933Z,1.26
2022-11-25T23:31:03.437Z,1.27
2022-11-25T23:33:45.939Z,1.27
2022-11-25T23:36:30.192Z,1.28
2022-11-25T23:39:00.515Z,1.28
2022-11-25T23:41:31.758Z,1.27
2022-11-25T23:44:26.047Z,1.27
2022-11-25T23:46:58.577Z,1.28
2022-11-25T23:49:36.010Z,1.29
2022-11-25T23:52:08.076Z,1.29
2022-11-25T23:54:40.912Z,1.29
2022-11-25T23:57:33.329Z,1.29
